sensor_id;sensor_type;location;lat;lon;timestamp;pressure;altitude;pressure_sealevel;temperature;humidity
23574;BME280;11965;53.640;10.050;2022-08-21T00:01:24;101445.81;;;15.23;84.02
23574;BME280;11965;53.640;10.050;2022-08-21T00:03:50;101446.03;;;15.29;83.17
23574;BME280;11965;53.640;10.050;2022-08-21T00:06:16;101444.94;;;15.23;83.34
23574;BME280;11965;53.640;10.050;2022-08-21T00:08:42;101445.34;;;15.20;83.68
23574;BME280;11965;53.640;10.050;2022-08-21T00:11:08;101441.06;;;15.17;83.49
23574;BME280;11965;53.640;10.050;2022-08-21T00:13:34;101441.72;;;15.19;83.44
23574;BME280;11965;53.640;10.050;2022-08-21T00:16:00;101434.19;;;15.20;83.78
23574;BME280;11965;53.640;10.050;2022-08-21T00:18:25;101432.47;;;15.19;84.00
23574;BME280;11965;53.640;10.050;2022-08-21T00:20:51;101436.75;;;15.15;84.10
23574;BME280;11965;53.640;10.050;2022-08-21T00:23:17;101433.53;;;15.11;84.64
23574;BME280;11965;53.640;10.050;2022-08-21T00:25:44;101425.53;;;15.01;84.33
23574;BME280;11965;53.640;10.050;2022-08-21T00:28:10;101433.47;;;14.98;84.27
23574;BME280;11965;53.640;10.050;2022-08-21T00:30:37;101427.66;;;14.93;84.69
23574;BME280;11965;53.640;10.050;2022-08-21T00:33:04;101423.81;;;14.94;85.49
23574;BME280;11965;53.640;10.050;2022-08-21T00:35:34;101421.03;;;14.94;84.97
23574;BME280;11965;53.640;10.050;2022-08-21T00:38:01;101419.09;;;14.94;85.06
23574;BME280;11965;53.640;10.050;2022-08-21T00:40:31;101421.03;;;15.00;84.25
23574;BME280;11965;53.640;10.050;2022-08-21T00:42:56;101422.13;;;14.99;84.20
23574;BME280;11965;53.640;10.050;2022-08-21T00:45:22;101420.56;;;14.90;84.63
23574;BME280;11965;53.640;10.050;2022-08-21T00:47:49;101420.13;;;14.87;84.88
23574;BME280;11965;53.640;10.050;2022-08-21T00:50:15;101424.41;;;14.83;84.96
23574;BME280;11965;53.640;10.050;2022-08-21T00:52:41;101415.41;;;14.87;84.75
23574;BME280;11965;53.640;10.050;2022-08-21T00:55:08;101411.97;;;14.85;85.35
23574;BME280;11965;53.640;10.050;2022-08-21T00:57:42;101413.47;;;14.88;84.48
23574;BME280;11965;53.640;10.050;2022-08-21T01:00:12;101418.19;;;14.87;84.32
23574;BME280;11965;53.640;10.050;2022-08-21T01:02:39;101419.25;;;14.79;84.87
23574;BME280;11965;53.640;10.050;2022-08-21T01:05:05;101419.44;;;14.71;85.47
23574;BME280;11965;53.640;10.050;2022-08-21T01:07:31;101422.44;;;14.70;85.66
23574;BME280;11965;53.640;10.050;2022-08-21T01:09:57;101413.00;;;14.71;85.33
23574;BME280;11965;53.640;10.050;2022-08-21T01:12:23;101413.84;;;14.71;85.15
23574;BME280;11965;53.640;10.050;2022-08-21T01:14:49;101423.53;;;14.75;85.29
23574;BME280;11965;53.640;10.050;2022-08-21T01:17:15;101420.94;;;14.74;85.09
23574;BME280;11965;53.640;10.050;2022-08-21T01:19:42;101423.53;;;14.75;84.41
23574;BME280;11965;53.640;10.050;2022-08-21T01:22:07;101419.84;;;14.68;85.23
23574;BME280;11965;53.640;10.050;2022-08-21T01:24:33;101419.66;;;14.70;84.47
23574;BME280;11965;53.640;10.050;2022-08-21T01:26:59;101427.13;;;14.69;84.35
23574;BME280;11965;53.640;10.050;2022-08-21T01:29:45;101424.34;;;14.63;84.66
23574;BME280;11965;53.640;10.050;2022-08-21T01:32:16;101426.44;;;14.54;85.41
23574;BME280;11965;53.640;10.050;2022-08-21T01:34:44;101422.56;;;14.55;85.40
23574;BME280;11965;53.640;10.050;2022-08-21T01:37:11;101419.78;;;14.55;85.12
23574;BME280;11965;53.640;10.050;2022-08-21T01:39:37;101427.31;;;14.54;85.37
23574;BME280;11965;53.640;10.050;2022-08-21T01:42:04;101423.16;;;14.50;85.32
23574;BME280;11965;53.640;10.050;2022-08-21T01:44:30;101425.94;;;14.50;85.59
23574;BME280;11965;53.640;10.050;2022-08-21T01:46:58;101418.84;;;14.48;85.30
23574;BME280;11965;53.640;10.050;2022-08-21T01:49:24;101423.56;;;14.41;85.85
23574;BME280;11965;53.640;10.050;2022-08-21T01:51:49;101422.69;;;14.40;86.19
23574;BME280;11965;53.640;10.050;2022-08-21T01:54:15;101420.75;;;14.41;85.60
23574;BME280;11965;53.640;10.050;2022-08-21T01:56:43;101415.63;;;14.44;85.43
23574;BME280;11965;53.640;10.050;2022-08-21T01:59:09;101414.53;;;14.45;85.21
23574;BME280;11965;53.640;10.050;2022-08-21T02:01:36;101408.94;;;14.39;86.08
23574;BME280;11965;53.640;10.050;2022-08-21T02:04:02;101414.50;;;14.32;85.82
23574;BME280;11965;53.640;10.050;2022-08-21T02:06:28;101408.69;;;14.27;86.65
23574;BME280;11965;53.640;10.050;2022-08-21T02:08:53;101410.38;;;14.28;86.20
23574;BME280;11965;53.640;10.050;2022-08-21T02:11:19;101413.59;;;14.25;86.71
23574;BME280;11965;53.640;10.050;2022-08-21T02:13:45;101407.41;;;14.29;86.30
23574;BME280;11965;53.640;10.050;2022-08-21T02:16:11;101412.75;;;14.31;85.88
23574;BME280;11965;53.640;10.050;2022-08-21T02:18:37;101411.47;;;14.27;85.97
23574;BME280;11965;53.640;10.050;2022-08-21T02:21:04;101409.34;;;14.35;84.99
23574;BME280;11965;53.640;10.050;2022-08-21T02:23:29;101420.06;;;14.32;85.68
23574;BME280;11965;53.640;10.050;2022-08-21T02:25:59;101409.72;;;14.26;86.32
23574;BME280;11965;53.640;10.050;2022-08-21T02:28:26;101408.63;;;14.20;86.48
23574;BME280;11965;53.640;10.050;2022-08-21T02:30:53;101413.16;;;14.21;86.61
23574;BME280;11965;53.640;10.050;2022-08-21T02:33:19;101415.88;;;14.14;86.73
23574;BME280;11965;53.640;10.050;2022-08-21T02:35:46;101406.44;;;14.15;86.79
23574;BME280;11965;53.640;10.050;2022-08-21T02:38:19;101413.78;;;14.23;86.05
23574;BME280;11965;53.640;10.050;2022-08-21T02:40:47;101413.16;;;14.21;86.02
23574;BME280;11965;53.640;10.050;2022-08-21T02:43:14;101408.78;;;14.12;86.91
23574;BME280;11965;53.640;10.050;2022-08-21T02:45:41;101411.31;;;14.07;86.93
23574;BME280;11965;53.640;10.050;2022-08-21T02:48:09;101407.31;;;14.16;86.75
23574;BME280;11965;53.640;10.050;2022-08-21T02:50:45;101409.38;;;14.07;87.58
23574;BME280;11965;53.640;10.050;2022-08-21T02:53:12;101409.63;;;14.12;87.04
23574;BME280;11965;53.640;10.050;2022-08-21T02:55:40;101400.66;;;14.17;86.77
23574;BME280;11965;53.640;10.050;2022-08-21T02:58:07;101402.00;;;14.21;86.54
23574;BME280;11965;53.640;10.050;2022-08-21T03:00:34;101398.72;;;14.18;86.94
23574;BME280;11965;53.640;10.050;2022-08-21T03:03:01;101393.75;;;14.13;86.99
23574;BME280;11965;53.640;10.050;2022-08-21T03:05:28;101396.56;;;14.13;86.98
23574;BME280;11965;53.640;10.050;2022-08-21T03:07:57;101399.31;;;14.06;87.50
23574;BME280;11965;53.640;10.050;2022-08-21T03:10:24;101394.34;;;14.02;87.79
23574;BME280;11965;53.640;10.050;2022-08-21T03:12:50;101396.72;;;14.05;87.12
23574;BME280;11965;53.640;10.050;2022-08-21T03:15:19;101402.28;;;14.05;87.75
23574;BME280;11965;53.640;10.050;2022-08-21T03:17:45;101394.41;;;14.08;87.13
23574;BME280;11965;53.640;10.050;2022-08-21T03:20:14;101392.06;;;14.12;87.44
23574;BME280;11965;53.640;10.050;2022-08-21T03:22:39;101389.50;;;14.17;86.73
23574;BME280;11965;53.640;10.050;2022-08-21T03:25:05;101391.63;;;14.15;87.15
23574;BME280;11965;53.640;10.050;2022-08-21T03:27:31;101390.13;;;14.12;86.60
23574;BME280;11965;53.640;10.050;2022-08-21T03:29:57;101392.06;;;14.12;86.92
23574;BME280;11965;53.640;10.050;2022-08-21T03:32:23;101389.06;;;14.13;86.20
23574;BME280;11965;53.640;10.050;2022-08-21T03:34:48;101393.25;;;14.31;85.57
23574;BME280;11965;53.640;10.050;2022-08-21T03:37:14;101391.13;;;14.40;84.39
23574;BME280;11965;53.640;10.050;2022-08-21T03:39:40;101388.75;;;14.30;84.41
23574;BME280;11965;53.640;10.050;2022-08-21T03:42:07;101384.34;;;14.14;85.69
23574;BME280;11965;53.640;10.050;2022-08-21T03:44:33;101386.91;;;14.09;85.80
23574;BME280;11965;53.640;10.050;2022-08-21T03:46:59;101376.34;;;14.04;85.98
23574;BME280;11965;53.640;10.050;2022-08-21T03:49:25;101388.31;;;13.98;86.55
23574;BME280;11965;53.640;10.050;2022-08-21T03:51:50;101386.19;;;14.00;86.47
23574;BME280;11965;53.640;10.050;2022-08-21T03:54:16;101393.47;;;13.95;86.58
23574;BME280;11965;53.640;10.050;2022-08-21T03:56:42;101394.66;;;13.85;87.09
23574;BME280;11965;53.640;10.050;2022-08-21T03:59:07;101396.00;;;13.89;87.11
23574;BME280;11965;53.640;10.050;2022-08-21T04:01:33;101391.00;;;13.85;87.38
23574;BME280;11965;53.640;10.050;2022-08-21T04:03:59;101391.00;;;13.85;88.06
23574;BME280;11965;53.640;10.050;2022-08-21T04:06:24;101396.34;;;13.80;88.23
23574;BME280;11965;53.640;10.050;2022-08-21T04:08:52;101397.28;;;13.93;87.17
23574;BME280;11965;53.640;10.050;2022-08-21T04:11:18;101397.75;;;13.97;87.37
23574;BME280;11965;53.640;10.050;2022-08-21T04:13:44;101403.53;;;13.96;87.00
23574;BME280;11965;53.640;10.050;2022-08-21T04:16:09;101398.81;;;13.96;86.91
23574;BME280;11965;53.640;10.050;2022-08-21T04:18:35;101396.19;;;13.88;87.17
23574;BME280;11965;53.640;10.050;2022-08-21T04:21:01;101393.63;;;13.86;87.44
23574;BME280;11965;53.640;10.050;2022-08-21T04:23:27;101394.88;;;13.84;88.28
23574;BME280;11965;53.640;10.050;2022-08-21T04:25:54;101398.72;;;13.83;87.99
23574;BME280;11965;53.640;10.050;2022-08-21T04:28:22;101392.13;;;13.90;87.84
23574;BME280;11965;53.640;10.050;2022-08-21T04:30:47;101406.50;;;13.94;87.55
23574;BME280;11965;53.640;10.050;2022-08-21T04:33:14;101394.41;;;14.08;86.58
23574;BME280;11965;53.640;10.050;2022-08-21T04:35:39;101395.59;;;13.99;87.77
23574;BME280;11965;53.640;10.050;2022-08-21T04:38:05;101400.38;;;14.05;88.53
23574;BME280;11965;53.640;10.050;2022-08-21T04:40:30;101396.78;;;14.11;88.76
23574;BME280;11965;53.640;10.050;2022-08-21T04:43:00;101407.41;;;14.29;87.75
23574;BME280;11965;53.640;10.050;2022-08-21T04:45:30;101406.59;;;14.42;87.29
23574;BME280;11965;53.640;10.050;2022-08-21T04:47:58;101404.28;;;14.46;86.86
23574;BME280;11965;53.640;10.050;2022-08-21T04:50:29;101414.53;;;14.45;86.74
23574;BME280;11965;53.640;10.050;2022-08-21T04:53:05;101412.84;;;14.44;87.28
23574;BME280;11965;53.640;10.050;2022-08-21T04:55:32;101408.56;;;14.48;87.36
23574;BME280;11965;53.640;10.050;2022-08-21T04:57:59;101412.06;;;14.57;87.63
23574;BME280;11965;53.640;10.050;2022-08-21T05:00:24;101409.97;;;14.66;87.31
23574;BME280;11965;53.640;10.050;2022-08-21T05:02:51;101413.88;;;14.78;87.07
23574;BME280;11965;53.640;10.050;2022-08-21T05:05:21;101417.34;;;14.93;86.74
23574;BME280;11965;53.640;10.050;2022-08-21T05:07:47;101417.59;;;14.98;85.87
23574;BME280;11965;53.640;10.050;2022-08-21T05:10:13;101418.66;;;14.97;86.29
23574;BME280;11965;53.640;10.050;2022-08-21T05:12:41;101415.47;;;15.00;85.93
23574;BME280;11965;53.640;10.050;2022-08-21T05:15:07;101420.84;;;15.09;86.08
23574;BME280;11965;53.640;10.050;2022-08-21T05:17:33;101415.50;;;15.07;86.56
23574;BME280;11965;53.640;10.050;2022-08-21T05:19:58;101423.00;;;15.13;86.89
23574;BME280;11965;53.640;10.050;2022-08-21T05:22:24;101420.88;;;15.22;87.12
23574;BME280;11965;53.640;10.050;2022-08-21T05:24:51;101416.16;;;15.36;87.14
23574;BME280;11965;53.640;10.050;2022-08-21T05:27:17;101424.59;;;15.42;87.34
23574;BME280;11965;53.640;10.050;2022-08-21T05:29:43;101417.91;;;15.57;87.49
23574;BME280;11965;53.640;10.050;2022-08-21T05:32:12;101423.31;;;15.85;86.62
23574;BME280;11965;53.640;10.050;2022-08-21T05:34:38;101418.81;;;15.90;87.12
23574;BME280;11965;53.640;10.050;2022-08-21T05:37:03;101421.38;;;16.05;86.48
23574;BME280;11965;53.640;10.050;2022-08-21T05:39:29;101419.88;;;16.09;86.16
23574;BME280;11965;53.640;10.050;2022-08-21T05:41:54;101417.28;;;16.08;86.02
23574;BME280;11965;53.640;10.050;2022-08-21T05:44:20;101413.16;;;16.17;86.00
23574;BME280;11965;53.640;10.050;2022-08-21T05:46:45;101414.88;;;16.31;85.77
23574;BME280;11965;53.640;10.050;2022-08-21T05:49:11;101423.25;;;16.45;85.88
23574;BME280;11965;53.640;10.050;2022-08-21T05:51:38;101412.22;;;16.56;85.68
23574;BME280;11965;53.640;10.050;2022-08-21T05:54:04;101416.69;;;16.77;84.51
23574;BME280;11965;53.640;10.050;2022-08-21T05:56:30;101417.69;;;16.90;83.43
23574;BME280;11965;53.640;10.050;2022-08-21T05:58:55;101417.69;;;16.90;81.95
23574;BME280;11965;53.640;10.050;2022-08-21T06:01:21;101414.41;;;17.06;82.99
23574;BME280;11965;53.640;10.050;2022-08-21T06:03:46;101418.78;;;16.95;84.75
23574;BME280;11965;53.640;10.050;2022-08-21T06:06:11;101423.41;;;17.15;83.88
23574;BME280;11965;53.640;10.050;2022-08-21T06:08:37;101418.16;;;17.25;82.50
23574;BME280;11965;53.640;10.050;2022-08-21T06:11:04;101416.41;;;17.31;82.30
23574;BME280;11965;53.640;10.050;2022-08-21T06:13:30;101408.38;;;17.41;81.17
23574;BME280;11965;53.640;10.050;2022-08-21T06:16:06;101416.13;;;17.39;81.24
23574;BME280;11965;53.640;10.050;2022-08-21T06:18:34;101403.00;;;17.33;81.24
23574;BME280;11965;53.640;10.050;2022-08-21T06:21:00;101412.22;;;17.40;80.79
23574;BME280;11965;53.640;10.050;2022-08-21T06:23:25;101405.31;;;17.42;81.66
23574;BME280;11965;53.640;10.050;2022-08-21T06:25:51;101407.53;;;17.34;83.13
23574;BME280;11965;53.640;10.050;2022-08-21T06:28:18;101407.16;;;17.55;82.17
23574;BME280;11965;53.640;10.050;2022-08-21T06:30:43;101410.50;;;17.71;81.60
23574;BME280;11965;53.640;10.050;2022-08-21T06:33:09;101409.31;;;17.85;79.62
23574;BME280;11965;53.640;10.050;2022-08-21T06:35:35;101413.97;;;17.98;78.78
23574;BME280;11965;53.640;10.050;2022-08-21T06:38:00;101402.97;;;17.96;78.94
23574;BME280;11965;53.640;10.050;2022-08-21T06:40:27;101412.66;;;18.00;79.11
23574;BME280;11965;53.640;10.050;2022-08-21T06:42:53;101405.13;;;17.94;79.90
23574;BME280;11965;53.640;10.050;2022-08-21T06:45:19;101410.53;;;17.96;79.30
23574;BME280;11965;53.640;10.050;2022-08-21T06:47:44;101407.81;;;18.07;77.88
23574;BME280;11965;53.640;10.050;2022-08-21T06:50:10;101411.25;;;18.09;77.05
23574;BME280;11965;53.640;10.050;2022-08-21T06:52:36;101405.50;;;18.23;75.64
23574;BME280;11965;53.640;10.050;2022-08-21T06:55:04;101399.59;;;18.31;73.57
23574;BME280;11965;53.640;10.050;2022-08-21T06:57:30;101405.66;;;18.28;74.22
23574;BME280;11965;53.640;10.050;2022-08-21T06:59:55;101412.13;;;18.28;72.92
23574;BME280;11965;53.640;10.050;2022-08-21T07:02:21;101406.69;;;18.33;72.80
23574;BME280;11965;53.640;10.050;2022-08-21T07:04:46;101407.22;;;18.42;72.45
23574;BME280;11965;53.640;10.050;2022-08-21T07:07:11;101399.66;;;18.43;72.39
23574;BME280;11965;53.640;10.050;2022-08-21T07:09:37;101396.31;;;18.52;71.70
23574;BME280;11965;53.640;10.050;2022-08-21T07:12:03;101402.63;;;18.66;70.74
23574;BME280;11965;53.640;10.050;2022-08-21T07:14:28;101389.69;;;18.65;72.44
23574;BME280;11965;53.640;10.050;2022-08-21T07:16:54;101398.50;;;18.69;69.12
23574;BME280;11965;53.640;10.050;2022-08-21T07:19:19;101390.41;;;18.79;67.59
23574;BME280;11965;53.640;10.050;2022-08-21T07:21:45;101390.56;;;18.84;66.38
23574;BME280;11965;53.640;10.050;2022-08-21T07:24:11;101389.22;;;18.87;65.19
23574;BME280;11965;53.640;10.050;2022-08-21T07:26:37;101379.56;;;19.13;64.97
23574;BME280;11965;53.640;10.050;2022-08-21T07:29:03;101382.97;;;19.15;64.04
23574;BME280;11965;53.640;10.050;2022-08-21T07:31:28;101375.97;;;19.36;64.32
23574;BME280;11965;53.640;10.050;2022-08-21T07:33:54;101376.59;;;19.50;63.60
23574;BME280;11965;53.640;10.050;2022-08-21T07:36:20;101369.69;;;19.64;63.84
23574;BME280;11965;53.640;10.050;2022-08-21T07:38:46;101369.47;;;19.77;62.98
23574;BME280;11965;53.640;10.050;2022-08-21T07:41:17;101366.31;;;19.85;61.75
23574;BME280;11965;53.640;10.050;2022-08-21T07:43:43;101365.94;;;19.94;61.65
23574;BME280;11965;53.640;10.050;2022-08-21T07:46:08;101360.16;;;20.00;61.26
23574;BME280;11965;53.640;10.050;2022-08-21T07:48:34;101358.72;;;20.10;59.98
23574;BME280;11965;53.640;10.050;2022-08-21T07:51:02;101363.22;;;20.11;59.06
23574;BME280;11965;53.640;10.050;2022-08-21T07:53:30;101354.88;;;20.27;57.12
23574;BME280;11965;53.640;10.050;2022-08-21T07:55:57;101350.00;;;20.35;56.91
23574;BME280;11965;53.640;10.050;2022-08-21T07:58:22;101358.41;;;20.58;57.44
23574;BME280;11965;53.640;10.050;2022-08-21T08:00:48;101351.16;;;20.62;56.81
23574;BME280;11965;53.640;10.050;2022-08-21T08:03:13;101356.50;;;20.76;55.83
23574;BME280;11965;53.640;10.050;2022-08-21T08:05:39;101362.66;;;20.72;55.73
23574;BME280;11965;53.640;10.050;2022-08-21T08:08:04;101358.94;;;20.84;54.61
23574;BME280;11965;53.640;10.050;2022-08-21T08:10:30;101350.25;;;20.85;55.93
23574;BME280;11965;53.640;10.050;2022-08-21T08:12:55;101351.97;;;21.03;54.15
23574;BME280;11965;53.640;10.050;2022-08-21T08:15:23;101360.72;;;21.02;55.57
23574;BME280;11965;53.640;10.050;2022-08-21T08:17:50;101354.47;;;21.00;54.29
23574;BME280;11965;53.640;10.050;2022-08-21T08:20:16;101349.03;;;20.81;55.55
23574;BME280;11965;53.640;10.050;2022-08-21T08:22:43;101353.75;;;20.92;53.96
23574;BME280;11965;53.640;10.050;2022-08-21T08:25:11;101345.03;;;21.23;54.77
23574;BME280;11965;53.640;10.050;2022-08-21T08:27:37;101342.81;;;21.25;53.65
23574;BME280;11965;53.640;10.050;2022-08-21T08:30:05;101344.56;;;21.43;52.63
23574;BME280;11965;53.640;10.050;2022-08-21T08:32:31;101340.28;;;21.40;53.01
23574;BME280;11965;53.640;10.050;2022-08-21T08:34:56;101343.91;;;21.52;53.95
23574;BME280;11965;53.640;10.050;2022-08-21T08:37:22;101342.88;;;21.75;53.52
23574;BME280;11965;53.640;10.050;2022-08-21T08:39:47;101343.34;;;21.89;53.43
23574;BME280;11965;53.640;10.050;2022-08-21T08:42:17;101335.00;;;21.77;56.32
23574;BME280;11965;53.640;10.050;2022-08-21T08:44:46;101331.53;;;21.92;55.60
23574;BME280;11965;53.640;10.050;2022-08-21T08:47:15;101331.53;;;21.92;54.88
23574;BME280;11965;53.640;10.050;2022-08-21T08:55:28;101329.22;;;22.45;52.25
23574;BME280;11965;53.640;10.050;2022-08-21T08:57:57;101327.69;;;22.59;51.76
23574;BME280;11965;53.640;10.050;2022-08-21T09:00:24;101330.22;;;22.56;51.85
23574;BME280;11965;53.640;10.050;2022-08-21T09:02:53;101327.22;;;22.62;53.06
23574;BME280;11965;53.640;10.050;2022-08-21T09:05:26;101334.34;;;22.70;52.41
23574;BME280;11965;53.640;10.050;2022-08-21T09:08:03;101331.97;;;22.84;50.46
23574;BME280;11965;53.640;10.050;2022-08-21T09:10:39;101331.44;;;22.87;51.35
23574;BME280;11965;53.640;10.050;2022-08-21T09:15:54;101329.97;;;23.06;49.48
23574;BME280;11965;53.640;10.050;2022-08-21T09:21:33;101322.69;;;23.43;49.21
23574;BME280;11965;53.640;10.050;2022-08-21T09:24:13;101324.84;;;23.30;48.15
23574;BME280;11965;53.640;10.050;2022-08-21T09:26:52;101320.75;;;23.43;49.76
23574;BME280;11965;53.640;10.050;2022-08-21T09:29:21;101317.47;;;23.56;49.04
23574;BME280;11965;53.640;10.050;2022-08-21T09:31:49;101313.28;;;23.69;48.82
23574;BME280;11965;53.640;10.050;2022-08-21T09:34:27;101313.28;;;23.69;49.14
23574;BME280;11965;53.640;10.050;2022-08-21T09:36:53;101310.53;;;23.74;48.74
23574;BME280;11965;53.640;10.050;2022-08-21T09:39:28;101306.84;;;23.74;46.52
23574;BME280;11965;53.640;10.050;2022-08-21T09:42:00;101306.03;;;23.78;48.02
23574;BME280;11965;53.640;10.050;2022-08-21T09:44:31;101300.38;;;23.78;48.62
23574;BME280;11965;53.640;10.050;2022-08-21T09:46:58;101305.41;;;23.71;47.46
23574;BME280;11965;53.640;10.050;2022-08-21T09:49:43;101312.34;;;23.91;45.99
23574;BME280;11965;53.640;10.050;2022-08-21T09:52:19;101303.91;;;24.01;47.56
23574;BME280;11965;53.640;10.050;2022-08-21T09:54:51;101304.19;;;23.94;45.88
23574;BME280;11965;53.640;10.050;2022-08-21T09:57:30;101301.63;;;23.98;46.62
23574;BME280;11965;53.640;10.050;2022-08-21T10:00:30;101291.16;;;23.98;47.32
23574;BME280;11965;53.640;10.050;2022-08-21T10:03:18;101309.00;;;23.99;46.55
23574;BME280;11965;53.640;10.050;2022-08-21T10:06:01;101305.34;;;23.66;50.10
23574;BME280;11965;53.640;10.050;2022-08-21T10:08:31;101292.75;;;23.79;48.07
23574;BME280;11965;53.640;10.050;2022-08-21T10:11:23;101295.06;;;23.87;46.80
23574;BME280;11965;53.640;10.050;2022-08-21T10:24:48;101297.53;;;24.94;44.52
23574;BME280;11965;53.640;10.050;2022-08-21T10:27:29;101299.78;;;24.82;43.37
23574;BME280;11965;53.640;10.050;2022-08-21T10:30:08;101295.34;;;25.17;43.79
23574;BME280;11965;53.640;10.050;2022-08-21T10:35:22;101301.03;;;25.42;42.05
23574;BME280;11965;53.640;10.050;2022-08-21T10:40:53;101303.78;;;25.06;41.92
23574;BME280;11965;53.640;10.050;2022-08-21T10:49:35;101300.69;;;25.13;41.63
23574;BME280;11965;53.640;10.050;2022-08-21T10:55:04;101302.06;;;24.90;43.98
23574;BME280;11965;53.640;10.050;2022-08-21T11:00:04;101295.31;;;25.01;40.75
23574;BME280;11965;53.640;10.050;2022-08-21T11:02:40;101295.91;;;25.24;40.58
23574;BME280;11965;53.640;10.050;2022-08-21T11:08:01;101294.19;;;25.79;40.67
23574;BME280;11965;53.640;10.050;2022-08-21T11:10:32;101304.41;;;25.75;39.67
23574;BME280;11965;53.640;10.050;2022-08-21T11:13:02;101293.09;;;25.85;38.72
23574;BME280;11965;53.640;10.050;2022-08-21T11:18:15;101300.19;;;25.88;39.82
23574;BME280;11965;53.640;10.050;2022-08-21T11:20:54;101299.88;;;25.89;39.82
23574;BME280;11965;53.640;10.050;2022-08-21T11:26:45;101307.25;;;25.75;37.97
23574;BME280;11965;53.640;10.050;2022-08-21T11:29:29;101306.13;;;25.71;38.00
23574;BME280;11965;53.640;10.050;2022-08-21T11:34:41;101302.72;;;25.18;39.20
23574;BME280;11965;53.640;10.050;2022-08-21T11:41:02;101317.69;;;25.03;38.34
23574;BME280;11965;53.640;10.050;2022-08-21T11:43:41;101316.22;;;24.85;36.32
23574;BME280;11965;53.640;10.050;2022-08-21T11:49:18;101305.13;;;24.73;39.17
23574;BME280;11965;53.640;10.050;2022-08-21T11:51:52;101301.50;;;24.93;39.96
23574;BME280;11965;53.640;10.050;2022-08-21T11:57:13;101308.91;;;25.14;39.38
23574;BME280;11965;53.640;10.050;2022-08-21T11:59:47;101310.97;;;25.29;38.90
23574;BME280;11965;53.640;10.050;2022-08-21T12:02:18;101301.59;;;25.29;37.99
23574;BME280;11965;53.640;10.050;2022-08-21T12:04:53;101310.66;;;25.21;37.83
23574;BME280;11965;53.640;10.050;2022-08-21T12:07:42;101292.50;;;25.27;36.85
23574;BME280;11965;53.640;10.050;2022-08-21T12:10:17;101293.88;;;25.14;37.26
23574;BME280;11965;53.640;10.050;2022-08-21T12:12:46;101295.84;;;25.08;37.43
23574;BME280;11965;53.640;10.050;2022-08-21T12:21:21;101291.38;;;25.18;37.70
23574;BME280;11965;53.640;10.050;2022-08-21T12:26:51;101288.84;;;25.37;38.49
23574;BME280;11965;53.640;10.050;2022-08-21T12:29:25;101296.47;;;25.36;36.44
23574;BME280;11965;53.640;10.050;2022-08-21T12:32:03;101297.63;;;25.50;36.51
23574;BME280;11965;53.640;10.050;2022-08-21T12:34:35;101293.66;;;25.62;36.98
23574;BME280;11965;53.640;10.050;2022-08-21T12:37:27;101299.00;;;25.73;35.87
23574;BME280;11965;53.640;10.050;2022-08-21T12:39:57;101294.78;;;25.61;36.89
23574;BME280;11965;53.640;10.050;2022-08-21T12:42:37;101289.06;;;25.76;37.13
23574;BME280;11965;53.640;10.050;2022-08-21T12:45:17;101288.78;;;26.03;36.72
23574;BME280;11965;53.640;10.050;2022-08-21T12:53:31;101293.66;;;25.62;37.81
23574;BME280;11965;53.640;10.050;2022-08-21T12:56:02;101293.91;;;25.70;38.31
23574;BME280;11965;53.640;10.050;2022-08-21T12:58:30;101293.38;;;25.63;38.39
23574;BME280;11965;53.640;10.050;2022-08-21T13:03:27;101285.66;;;25.94;37.89
23574;BME280;11965;53.640;10.050;2022-08-21T13:05:53;101296.44;;;26.03;38.18
23574;BME280;11965;53.640;10.050;2022-08-21T13:08:21;101282.53;;;26.01;37.18
23574;BME280;11965;53.640;10.050;2022-08-21T13:10:59;101282.53;;;26.06;39.20
23574;BME280;11965;53.640;10.050;2022-08-21T13:13:27;101284.50;;;26.06;36.46
23574;BME280;11965;53.640;10.050;2022-08-21T13:16:04;101288.16;;;26.21;37.22
23574;BME280;11965;53.640;10.050;2022-08-21T13:18:33;101281.94;;;26.14;37.54
23574;BME280;11965;53.640;10.050;2022-08-21T13:21:17;101275.31;;;26.34;37.08
23574;BME280;11965;53.640;10.050;2022-08-21T13:23:42;101281.84;;;26.40;35.58
23574;BME280;11965;53.640;10.050;2022-08-21T13:26:21;101283.72;;;26.65;37.11
23574;BME280;11965;53.640;10.050;2022-08-21T13:28:48;101277.66;;;26.87;35.61
23574;BME280;11965;53.640;10.050;2022-08-21T13:31:27;101273.84;;;26.47;35.87
23574;BME280;11965;53.640;10.050;2022-08-21T13:33:54;101268.59;;;26.10;35.57
23574;BME280;11965;53.640;10.050;2022-08-21T13:36:25;101272.31;;;25.95;37.15
23574;BME280;11965;53.640;10.050;2022-08-21T13:38:52;101271.78;;;25.72;36.83
23574;BME280;11965;53.640;10.050;2022-08-21T13:41:31;101276.03;;;25.60;36.17
23574;BME280;11965;53.640;10.050;2022-08-21T13:44:05;101271.25;;;25.50;37.53
23574;BME280;11965;53.640;10.050;2022-08-21T13:46:34;101268.66;;;25.69;36.19
23574;BME280;11965;53.640;10.050;2022-08-21T13:49:03;101274.34;;;25.74;36.50
23574;BME280;11965;53.640;10.050;2022-08-21T13:51:31;101267.78;;;25.68;38.44
23574;BME280;11965;53.640;10.050;2022-08-21T13:53:58;101270.09;;;25.56;37.27
23574;BME280;11965;53.640;10.050;2022-08-21T13:56:28;101272.34;;;25.39;36.57
23574;BME280;11965;53.640;10.050;2022-08-21T13:58:55;101273.50;;;25.32;35.73
23574;BME280;11965;53.640;10.050;2022-08-21T14:03:47;101257.88;;;25.66;35.63
23574;BME280;11965;53.640;10.050;2022-08-21T14:06:16;101263.25;;;25.98;35.77
23574;BME280;11965;53.640;10.050;2022-08-21T14:08:50;101278.81;;;26.06;35.12